Time;durP1;ratioP1;P1;durP2;ratioP2;P2;SDS_P1;SDS_P2;PMS_P1;PMS_P2;Temp;Humidity;BMP_temperature;BMP_pressure;BME280_temperature;BME280_humidity;BME280_pressure;Samples;Min_cycle;Max_cycle;Signal;HPM_P1;HPM_P2
2022/09/14 00:01:26;;;;;;;0.23;0.23;;;17.00;99.90;17.40;100622.00;;;;5057556;28;20266;-72
2022/09/14 00:03:56;;;;;;;0.53;0.53;;;17.10;99.90;17.30;100617.00;;;;5057757;28;20176;-72
2022/09/14 00:06:22;;;;;;;0.20;0.20;;;17.10;99.90;17.40;100627.00;;;;5057841;28;20179;-72
2022/09/14 00:08:54;;;;;;;0.77;0.77;;;17.00;99.90;17.20;100630.00;;;;5057552;28;20651;-73
2022/09/14 00:11:23;;;;;;;0.53;0.53;;;17.00;99.90;17.50;100631.00;;;;5058079;28;20490;-73
2022/09/14 00:13:57;;;;;;;0.50;0.50;;;17.00;99.90;17.40;100613.00;;;;5057368;28;20197;-73
2022/09/14 00:16:44;;;;;;;0.20;0.20;;;17.10;99.90;17.80;100618.00;;;;5057367;28;20185;-73
2022/09/14 00:19:25;;;;;;;0.20;0.20;;;17.20;99.90;17.30;100620.00;;;;5057389;28;20208;-74
2022/09/14 00:21:54;;;;;;;0.30;0.30;;;17.10;99.90;16.90;100611.00;;;;5075364;28;20586;-73
2022/09/14 00:24:21;;;;;;;0.20;0.20;;;16.90;99.90;17.40;100570.00;;;;5057498;28;20207;-73
2022/09/14 00:26:48;;;;;;;0.20;0.20;;;17.00;99.90;17.50;100578.00;;;;5057295;28;20193;-73
2022/09/14 00:29:14;;;;;;;0.73;0.63;;;17.00;99.90;17.30;100594.00;;;;5057188;28;20184;-73
2022/09/14 00:31:40;;;;;;;0.20;0.20;;;17.10;99.90;17.50;100537.00;;;;5056494;28;20218;-73
2022/09/14 00:34:10;;;;;;;0.20;0.20;;;17.00;99.90;17.30;100581.00;;;;5057475;28;20265;-73
2022/09/14 00:36:43;;;;;;;0.50;0.50;;;17.00;99.90;17.00;100566.00;;;;5057595;28;20181;-73
2022/09/14 00:39:10;;;;;;;0.40;0.40;;;17.00;99.90;16.90;100578.00;;;;5057409;28;20180;-73
2022/09/14 00:41:41;;;;;;;0.30;0.30;;;16.80;99.90;17.00;100567.00;;;;5057292;28;20185;-73
2022/09/14 00:44:27;;;;;;;0.20;0.20;;;16.80;99.90;17.50;100575.00;;;;5073236;28;20179;-73
2022/09/14 00:46:56;;;;;;;0.50;0.50;;;16.90;99.90;17.60;100569.00;;;;5074968;28;20586;-72
2022/09/14 00:49:43;;;;;;;0.20;0.20;;;17.00;99.90;18.20;100569.00;;;;5057400;28;20176;-73
2022/09/14 00:52:31;;;;;;;0.57;0.57;;;17.20;99.90;17.20;100557.00;;;;5057291;28;20200;-72
2022/09/14 00:55:11;;;;;;;0.27;0.27;;;17.10;99.90;17.20;100551.00;;;;5073237;28;20307;-73
2022/09/14 00:57:50;;;;;;;0.37;0.37;;;17.00;99.90;17.30;100551.00;;;;5056946;28;20187;-73
2022/09/14 01:00:21;;;;;;;0.20;0.20;;;17.00;99.90;17.30;100555.00;;;;5056503;28;20223;-73
2022/09/14 01:02:47;;;;;;;0.67;0.67;;;16.90;99.90;17.40;100555.00;;;;5056541;28;20647;-73
2022/09/14 01:05:14;;;;;;;0.20;0.20;;;16.90;99.90;17.40;100548.00;;;;5056787;28;20200;-73
2022/09/14 01:08:00;;;;;;;0.40;0.40;;;16.90;99.90;17.20;100553.00;;;;5056786;28;20549;-73
2022/09/14 01:11:06;;;;;;;0.20;0.20;;;16.90;99.90;16.80;100560.00;;;;5056504;28;20645;-73
2022/09/14 01:13:57;;;;;;;0.50;0.50;;;16.80;99.90;17.10;100559.00;;;;5073109;28;20227;-74
2022/09/14 01:17:02;;;;;;;0.40;0.40;;;16.70;99.90;17.30;100558.00;;;;5056376;28;20283;-73
2022/09/14 01:20:30;;;;;;;0.20;0.20;;;16.80;99.90;17.10;100554.00;;;;5073466;28;20251;-73
2022/09/14 01:23:18;;;;;;;0.27;0.27;;;16.80;99.90;17.10;100515.00;;;;4953855;29;20295;-73
2022/09/14 01:26:12;;;;;;;0.30;0.30;;;16.80;99.90;17.40;100551.00;;;;4953978;29;20207;-72
2022/09/14 01:29:14;;;;;;;0.20;0.20;;;16.90;99.90;17.20;100549.00;;;;5037828;28;20747;-72
2022/09/14 01:31:53;;;;;;;0.40;0.40;;;17.00;99.90;17.50;100564.00;;;;5073715;28;20250;-72
2022/09/14 01:34:35;;;;;;;0.20;0.20;;;17.00;99.90;17.60;100566.00;;;;5056190;28;20184;-73
2022/09/14 01:37:39;;;;;;;0.20;0.20;;;17.10;99.90;17.80;100559.00;;;;5056201;28;20176;-72
2022/09/14 01:40:34;;;;;;;0.40;0.40;;;17.10;99.90;17.30;100542.00;;;;5053592;28;20283;-73
2022/09/14 01:43:10;;;;;;;0.20;0.20;;;17.10;99.90;16.90;100552.00;;;;5055830;28;20560;-72
2022/09/14 01:45:43;;;;;;;1.60;1.33;;;16.90;99.90;16.60;100540.00;;;;5073931;28;20578;-72
2022/09/14 01:48:12;;;;;;;0.23;0.23;;;16.70;99.90;16.40;100544.00;;;;5056538;28;20167;-72
2022/09/14 01:50:44;;;;;;;1.43;0.73;;;16.40;99.90;16.30;100552.00;;;;5055528;28;20268;-72
2022/09/14 01:53:25;;;;;;;0.20;0.20;;;16.30;99.90;16.40;100543.00;;;;5056144;28;20249;-72
2022/09/14 01:56:02;;;;;;;0.20;0.20;;;16.30;99.90;17.00;100541.00;;;;5055997;28;20384;-72
2022/09/14 01:58:34;;;;;;;0.67;0.67;;;16.50;99.90;16.50;100549.00;;;;5055424;28;20188;-72
2022/09/14 02:01:03;;;;;;;1.37;1.37;;;16.40;99.90;16.50;100550.00;;;;5073481;28;20294;-72
2022/09/14 02:03:41;;;;;;;0.30;0.30;;;16.30;99.90;16.30;100508.00;;;;5055757;28;20194;-72
2022/09/14 02:06:21;;;;;;;0.20;0.20;;;16.20;99.90;16.30;100550.00;;;;5055659;28;20204;-74
2022/09/14 02:08:47;;;;;;;0.37;0.37;;;16.20;99.90;16.60;100547.00;;;;5055326;28;20194;-72
2022/09/14 02:11:13;;;;;;;0.63;0.53;;;16.20;99.90;16.40;100525.00;;;;5055729;28;20166;-75
2022/09/14 02:13:39;;;;;;;0.30;0.30;;;16.20;99.90;16.50;100552.00;;;;5055390;28;20202;-75
2022/09/14 02:16:05;;;;;;;0.60;0.60;;;16.20;99.90;16.60;100548.00;;;;5055843;28;20175;-74
2022/09/14 02:18:31;;;;;;;0.40;0.40;;;16.20;99.90;16.00;100544.00;;;;5055784;28;20183;-75
2022/09/14 02:21:08;;;;;;;0.50;0.50;;;16.00;99.90;16.10;100548.00;;;;5055375;28;20187;-75
2022/09/14 02:23:37;;;;;;;0.37;0.37;;;15.90;99.90;16.20;100552.00;;;;5055672;28;20185;-73
2022/09/14 02:26:04;;;;;;;0.47;0.47;;;15.90;99.90;16.20;100545.00;;;;5071486;28;20710;-72
2022/09/14 02:28:30;;;;;;;3.80;1.37;;;15.90;99.90;15.80;100532.00;;;;5055465;28;20174;-71
2022/09/14 02:31:47;;;;;;;0.77;0.77;;;15.80;99.90;15.70;100539.00;;;;5055272;28;20235;-71
2022/09/14 02:34:24;;;;;;;0.30;0.30;;;15.60;99.90;15.90;100533.00;;;;5022529;28;20206;-71
2022/09/14 02:37:07;;;;;;;0.30;0.30;;;15.70;99.90;15.70;100541.00;;;;5073260;28;20181;-71
2022/09/14 02:40:12;;;;;;;0.60;0.43;;;15.70;99.90;15.90;100532.00;;;;5071840;28;20181;-71
2022/09/14 02:42:51;;;;;;;0.40;0.40;;;15.70;99.90;16.00;100507.00;;;;5055108;28;20216;-71
2022/09/14 02:45:30;;;;;;;2.17;1.30;;;15.70;99.90;15.70;100528.00;;;;5055448;28;20183;-71
2022/09/14 02:48:12;;;;;;;2.43;1.43;;;15.70;99.90;15.80;100531.00;;;;5055239;28;20180;-71
2022/09/14 02:51:28;;;;;;;0.80;0.80;;;15.70;99.90;15.90;100529.00;;;;5073315;28;20231;-71
2022/09/14 02:54:19;;;;;;;0.80;0.80;;;15.70;99.90;16.00;100516.00;;;;5057351;28;20237;-71
2022/09/14 02:56:47;;;;;;;0.30;0.30;;;15.70;99.90;15.70;100519.00;;;;5054631;28;20181;-70
2022/09/14 02:59:18;;;;;;;1.17;1.03;;;15.60;99.90;16.00;100520.00;;;;5072857;28;20273;-71
2022/09/14 03:01:43;;;;;;;0.33;0.33;;;15.70;99.90;16.20;100501.00;;;;5072692;28;20182;-70
2022/09/14 03:04:09;;;;;;;0.30;0.30;;;15.80;99.90;16.30;100523.00;;;;5055318;28;20194;-71
2022/09/14 03:06:35;;;;;;;0.90;0.90;;;15.70;99.90;16.10;100506.00;;;;5055331;28;20221;-71
2022/09/14 03:09:01;;;;;;;0.80;0.80;;;15.80;99.90;16.20;100501.00;;;;5054681;28;20285;-70
2022/09/14 03:11:27;;;;;;;0.50;0.50;;;15.90;99.90;16.30;100504.00;;;;5071806;28;20240;-70
2022/09/14 03:13:53;;;;;;;0.40;0.40;;;15.90;99.90;16.50;100494.00;;;;5054850;28;20181;-70
2022/09/14 03:16:19;;;;;;;0.97;0.87;;;15.90;99.90;16.30;100499.00;;;;5073076;28;20261;-70
2022/09/14 03:18:48;;;;;;;0.70;0.70;;;15.90;99.90;16.10;100505.00;;;;5073649;28;20179;-69
2022/09/14 03:21:16;;;;;;;1.77;1.67;;;15.80;99.90;15.80;100509.00;;;;5058767;28;20171;-70
2022/09/14 03:23:47;;;;;;;0.40;0.40;;;15.70;99.90;16.30;100513.00;;;;5058304;28;20191;-70
2022/09/14 03:26:25;;;;;;;0.33;0.33;;;15.80;99.90;15.90;100501.00;;;;5058485;28;20189;-70
2022/09/14 03:28:53;;;;;;;0.40;0.40;;;15.70;99.90;16.30;100502.00;;;;5057719;28;20189;-70
2022/09/14 03:31:18;;;;;;;0.70;0.70;;;15.80;99.90;16.30;100496.00;;;;5057589;28;20191;-70
2022/09/14 03:33:44;;;;;;;0.30;0.30;;;15.90;99.90;16.10;100493.00;;;;5057207;28;20202;-70
2022/09/14 03:36:17;;;;;;;0.40;0.40;;;15.70;99.90;16.30;100498.00;;;;5057840;28;20186;-71
2022/09/14 03:38:50;;;;;;;0.40;0.40;;;15.70;99.90;16.00;100492.00;;;;5057103;28;20239;-70
2022/09/14 03:41:17;;;;;;;0.70;0.70;;;15.70;99.90;16.00;100448.00;;;;5057280;28;20182;-71
2022/09/14 03:43:45;;;;;;;0.40;0.40;;;15.70;99.90;16.30;100483.00;;;;5057028;28;20274;-71
2022/09/14 03:46:17;;;;;;;0.50;0.50;;;15.70;99.90;16.70;100490.00;;;;5057807;28;20201;-72
2022/09/14 03:48:43;;;;;;;0.70;0.70;;;15.90;99.90;16.40;100476.00;;;;5057512;28;20198;-71
2022/09/14 03:51:12;;;;;;;0.50;0.50;;;15.90;99.90;16.20;100475.00;;;;5057281;28;20189;-71
2022/09/14 03:53:38;;;;;;;1.07;0.87;;;15.90;99.90;15.90;100471.00;;;;5056557;28;20203;-71
2022/09/14 03:56:11;;;;;;;0.30;0.30;;;15.70;99.90;15.90;100476.00;;;;5075146;28;20182;-71
2022/09/14 03:58:37;;;;;;;2.87;1.13;;;15.70;99.90;15.90;100470.00;;;;5057510;28;20192;-71
2022/09/14 04:01:06;;;;;;;0.30;0.30;;;15.60;99.90;16.00;100479.00;;;;5056899;28;20185;-71
2022/09/14 04:03:32;;;;;;;0.30;0.30;;;15.60;99.90;16.00;100475.00;;;;5057017;28;20209;-69
2022/09/14 04:05:58;;;;;;;0.70;0.70;;;15.60;99.90;15.70;100479.00;;;;5056645;28;20181;-71
2022/09/14 04:08:24;;;;;;;0.60;0.60;;;15.50;99.90;15.40;100434.00;;;;5056926;28;20182;-71
2022/09/14 04:10:50;;;;;;;0.40;0.40;;;15.40;99.90;15.60;100473.00;;;;5057845;28;20568;-70
2022/09/14 04:13:17;;;;;;;0.70;0.70;;;15.40;99.90;15.80;100466.00;;;;5057739;28;20221;-70
2022/09/14 04:15:55;;;;;;;0.97;0.97;;;15.50;99.90;15.60;100477.00;;;;5057817;28;20637;-70
2022/09/14 04:18:21;;;;;;;1.77;1.67;;;15.50;99.90;15.50;100465.00;;;;5057514;28;20178;-70
2022/09/14 04:20:57;;;;;;;0.90;0.90;;;15.40;99.90;15.80;100467.00;;;;5075351;28;20193;-70
2022/09/14 04:23:24;;;;;;;0.40;0.40;;;15.50;99.90;15.80;100477.00;;;;5074901;28;20193;-71
2022/09/14 04:25:51;;;;;;;0.50;0.50;;;15.60;99.90;15.80;100478.00;;;;5056569;28;20188;-71
2022/09/14 04:28:17;;;;;;;0.40;0.40;;;15.60;99.90;16.00;100483.00;;;;5074976;28;20192;-71
2022/09/14 04:30:43;;;;;;;0.40;0.40;;;15.60;99.90;15.80;100478.00;;;;5056391;28;20215;-71
2022/09/14 04:33:10;;;;;;;0.50;0.50;;;15.60;99.90;16.40;100481.00;;;;5056411;28;20229;-71
2022/09/14 04:35:39;;;;;;;0.90;0.90;;;15.70;99.90;16.00;100475.00;;;;5074706;28;20182;-71
2022/09/14 04:38:04;;;;;;;0.67;0.67;;;15.60;99.90;15.80;100465.00;;;;5074331;28;20232;-71
2022/09/14 04:40:33;;;;;;;0.40;0.40;;;15.50;99.90;16.10;100440.00;;;;5056399;28;20674;-71
2022/09/14 04:42:59;;;;;;;0.60;0.60;;;15.60;99.90;15.60;100474.00;;;;5056299;28;20202;-71
2022/09/14 04:45:25;;;;;;;0.70;0.70;;;15.50;99.90;15.60;100461.00;;;;5073379;28;20798;-72
2022/09/14 04:47:52;;;;;;;0.60;0.60;;;15.50;99.90;15.70;100463.00;;;;5072962;28;20186;-71
2022/09/14 04:50:18;;;;;;;0.50;0.50;;;15.50;99.90;15.40;100467.00;;;;5074396;28;20183;-73
2022/09/14 04:52:44;;;;;;;0.40;0.40;;;15.40;99.90;15.40;100462.00;;;;5056038;28;20696;-73
2022/09/14 04:55:12;;;;;;;0.50;0.50;;;15.30;99.90;15.60;100456.00;;;;5056267;28;20280;-72
2022/09/14 04:57:38;;;;;;;0.90;0.80;;;15.30;99.90;15.30;100422.00;;;;5074140;28;20645;-74
2022/09/14 05:00:04;;;;;;;0.53;0.53;;;15.30;99.90;15.50;100454.00;;;;5074038;28;20190;-74
2022/09/14 05:02:31;;;;;;;0.57;0.57;;;15.30;99.90;15.30;100453.00;;;;5055836;28;20210;-73
2022/09/14 05:04:57;;;;;;;1.00;1.00;;;15.20;99.90;15.50;100432.00;;;;5055872;28;20269;-72
2022/09/14 05:07:23;;;;;;;0.50;0.40;;;15.30;99.90;15.40;100435.00;;;;5073968;28;20229;-73
2022/09/14 05:09:49;;;;;;;0.30;0.30;;;15.20;99.90;15.80;100446.00;;;;5069714;22;20253;-70
2022/09/14 05:12:15;;;;;;;0.40;0.40;;;15.30;99.90;16.10;100448.00;;;;5055614;28;20204;-70
2022/09/14 05:14:41;;;;;;;0.70;0.70;;;15.40;99.90;16.40;100438.00;;;;5055633;28;20226;-69
2022/09/14 05:17:07;;;;;;;1.67;1.57;;;15.60;99.90;16.00;100394.00;;;;5072855;28;20278;-69
2022/09/14 05:19:33;;;;;;;1.13;1.00;;;15.60;99.90;15.70;100427.00;;;;5055898;28;20718;-68
2022/09/14 05:21:59;;;;;;;1.37;1.27;;;15.50;99.90;16.10;100412.00;;;;5055759;28;20266;-68
2022/09/14 05:24:26;;;;;;;1.80;1.70;;;15.60;99.90;16.00;100406.00;;;;5055439;28;20592;-68
2022/09/14 05:26:53;;;;;;;0.80;0.80;;;15.60;99.90;16.00;100395.00;;;;5055109;28;20236;-67
2022/09/14 05:29:18;;;;;;;1.77;1.67;;;15.50;99.90;15.80;100394.00;;;;5055614;28;20228;-68
2022/09/14 05:31:45;;;;;;;0.83;0.83;;;15.50;99.90;15.40;100363.00;;;;5071545;28;20190;-68
2022/09/14 05:34:12;;;;;;;2.90;1.83;;;15.40;99.90;15.40;100403.00;;;;5055593;28;20190;-68
2022/09/14 05:36:39;;;;;;;1.00;1.00;;;15.30;99.90;15.40;100394.00;;;;5055360;28;20197;-68
2022/09/14 05:39:06;;;;;;;0.93;0.93;;;15.30;99.90;15.70;100375.00;;;;5055023;28;20197;-69
2022/09/14 05:41:32;;;;;;;0.90;0.90;;;15.30;99.90;15.60;100396.00;;;;5072255;28;20211;-69
2022/09/14 05:43:59;;;;;;;1.07;1.07;;;15.30;99.90;15.50;100404.00;;;;5054809;28;20637;-70
2022/09/14 05:46:25;;;;;;;1.87;1.77;;;15.30;99.90;15.20;100374.00;;;;5068485;22;20179;-72
2022/09/14 05:48:51;;;;;;;6.33;3.67;;;15.10;99.90;15.00;100367.00;;;;5035595;28;20187;-73
2022/09/14 05:51:22;;;;;;;2.80;2.60;;;15.10;99.90;15.00;100418.00;;;;5035769;28;20230;-73
2022/09/14 05:53:56;;;;;;;0.70;0.70;;;15.00;99.90;15.30;100385.00;;;;5035880;28;20692;-73
2022/09/14 05:56:26;;;;;;;0.80;0.80;;;15.10;99.90;15.60;100412.00;;;;5035828;28;20175;-73
2022/09/14 05:58:53;;;;;;;0.60;0.60;;;15.10;99.90;15.60;100412.00;;;;5035743;28;20519;-73
2022/09/14 06:01:24;;;;;;;2.03;1.93;;;15.20;99.90;15.50;100408.00;;;;5035672;28;20241;-74
2022/09/14 06:04:01;;;;;;;0.83;0.83;;;15.20;99.90;15.20;100407.00;;;;5035673;28;20179;-74
2022/09/14 06:06:28;;;;;;;0.90;0.90;;;15.00;99.90;15.60;100411.00;;;;5035766;28;20269;-73
2022/09/14 06:08:55;;;;;;;2.20;2.00;;;15.10;99.90;15.20;100414.00;;;;5019035;28;20182;-73
2022/09/14 06:11:31;;;;;;;1.53;1.43;;;15.10;99.90;15.30;100400.00;;;;5053581;28;20274;-74
2022/09/14 06:13:59;;;;;;;1.03;1.03;;;15.10;99.90;15.50;100369.00;;;;5035579;28;20192;-72
2022/09/14 06:16:26;;;;;;;1.83;1.73;;;15.10;99.90;15.40;100397.00;;;;5035260;28;20172;-72
2022/09/14 06:18:55;;;;;;;0.70;0.70;;;15.20;99.90;15.40;100398.00;;;;5052979;28;20182;-72
2022/09/14 06:21:21;;;;;;;1.20;1.20;;;15.20;99.90;15.70;100403.00;;;;5035433;28;20177;-73
2022/09/14 06:23:48;;;;;;;2.90;2.70;;;15.30;99.90;15.10;100405.00;;;;5035444;28;20625;-73
2022/09/14 06:26:15;;;;;;;2.30;2.10;;;15.10;99.90;15.00;100397.00;;;;5018951;28;20239;-73
2022/09/14 06:28:41;;;;;;;0.70;0.70;;;15.10;99.90;15.60;100390.00;;;;5035486;28;20658;-72
2022/09/14 06:31:11;;;;;;;0.90;0.90;;;15.20;99.90;15.90;100405.00;;;;5035395;28;20726;-73
2022/09/14 06:33:42;;;;;;;1.13;1.13;;;15.30;99.90;16.00;100355.00;;;;5018643;28;20225;-73
2022/09/14 06:36:11;;;;;;;2.50;2.40;;;15.40;99.90;16.00;100392.00;;;;5035389;28;20637;-73
2022/09/14 06:38:38;;;;;;;1.27;1.27;;;15.50;99.90;16.20;100362.00;;;;5053321;28;20630;-72
2022/09/14 06:41:13;;;;;;;1.13;1.13;;;15.50;99.90;15.90;100376.00;;;;5035061;28;20783;-73
2022/09/14 06:43:41;;;;;;;2.23;2.13;;;15.50;99.90;15.70;100382.00;;;;5035486;28;20190;-73
2022/09/14 06:46:20;;;;;;;1.20;1.20;;;15.40;99.90;15.40;100366.00;;;;5035535;28;20174;-72
2022/09/14 06:48:58;;;;;;;0.80;0.80;;;15.20;99.90;15.90;100383.00;;;;5035002;28;20313;-72
2022/09/14 06:51:33;;;;;;;1.07;1.07;;;15.40;99.90;15.50;100356.00;;;;5053256;28;20174;-72
2022/09/14 06:54:00;;;;;;;1.90;1.80;;;15.30;99.90;15.20;100385.00;;;;5020214;28;20186;-72
2022/09/14 06:56:39;;;;;;;3.33;2.70;;;15.20;99.90;15.20;100389.00;;;;5022673;28;20549;-72
2022/09/14 06:59:08;;;;;;;2.13;2.03;;;15.20;99.90;15.50;100389.00;;;;5039411;28;20206;-72
2022/09/14 07:01:34;;;;;;;3.13;2.97;;;15.20;99.90;15.30;100388.00;;;;5038929;28;20174;-72
2022/09/14 07:04:01;;;;;;;1.53;1.53;;;15.10;99.90;16.00;100394.00;;;;5022696;28;20203;-73
2022/09/14 07:06:32;;;;;;;3.50;2.80;;;15.30;99.90;16.30;100398.00;;;;5039339;28;20182;-74
2022/09/14 07:09:02;;;;;;;3.53;3.43;;;15.40;99.90;15.70;100391.00;;;;5056780;28;20189;-73
2022/09/14 07:11:49;;;;;;;1.20;1.20;;;15.30;99.90;15.80;100404.00;;;;5022342;28;20179;-73
2022/09/14 07:14:15;;;;;;;2.03;2.03;;;15.30;99.90;16.40;100396.00;;;;5022301;28;20194;-73
2022/09/14 07:16:42;;;;;;;2.57;2.37;;;15.50;99.90;16.30;100397.00;;;;5038776;28;20688;-73
2022/09/14 07:19:13;;;;;;;1.83;1.83;;;15.60;99.90;16.30;100398.00;;;;5038703;28;20197;-73
2022/09/14 07:21:40;;;;;;;1.40;1.40;;;15.60;99.90;15.90;100386.00;;;;5021436;28;20198;-73
2022/09/14 07:24:23;;;;;;;1.43;1.43;;;15.60;99.90;16.10;100345.00;;;;5021881;28;20662;-74
2022/09/14 07:26:58;;;;;;;1.87;1.87;;;15.50;99.90;16.20;100394.00;;;;5038961;28;20178;-74
2022/09/14 07:29:50;;;;;;;1.70;1.70;;;15.60;99.90;16.10;100381.00;;;;5056414;28;20188;-74
2022/09/14 07:32:38;;;;;;;1.33;1.33;;;15.60;99.90;15.90;100366.00;;;;5038148;28;20272;-73
2022/09/14 07:35:31;;;;;;;2.73;2.57;;;15.40;99.90;15.40;100386.00;;;;5021894;28;20175;-74
2022/09/14 07:37:57;;;;;;;4.60;4.20;;;15.30;99.90;15.00;100383.00;;;;5056183;28;20626;-74
2022/09/14 07:40:36;;;;;;;1.87;1.87;;;15.10;99.90;15.60;100392.00;;;;5038396;28;20186;-73
2022/09/14 07:43:10;;;;;;;1.67;1.67;;;15.20;99.90;15.70;100396.00;;;;5038755;28;20197;-74
2022/09/14 07:46:00;;;;;;;3.37;3.27;;;15.20;99.90;15.80;100381.00;;;;5021761;28;20541;-73
2022/09/14 07:48:44;;;;;;;4.10;3.87;;;15.30;99.90;15.40;100385.00;;;;5037827;28;20648;-73
2022/09/14 07:51:11;;;;;;;1.70;1.70;;;15.20;99.90;15.80;100384.00;;;;5021415;28;20191;-73
2022/09/14 07:53:42;;;;;;;1.83;1.80;;;15.30;99.90;15.70;100394.00;;;;5038319;28;20209;-74
2022/09/14 07:56:15;;;;;;;2.43;2.33;;;15.30;99.90;15.60;100386.00;;;;5038722;28;20185;-74
2022/09/14 07:59:04;;;;;;;2.70;2.60;;;15.30;99.90;16.10;100387.00;;;;5021781;28;20236;-73
2022/09/14 08:01:50;;;;;;;2.43;2.40;;;15.40;99.90;16.20;100391.00;;;;4999865;28;20556;-73
2022/09/14 08:04:19;;;;;;;2.73;2.63;;;15.50;99.90;16.60;100369.00;;;;5036925;28;20219;-76
2022/09/14 08:06:51;;;;;;;2.73;2.63;;;15.70;99.90;16.40;100391.00;;;;5021557;28;20273;-75
2022/09/14 08:09:22;;;;;;;3.10;3.00;;;15.70;99.90;16.10;100378.00;;;;5021838;28;20187;-76
2022/09/14 08:11:51;;;;;;;3.10;3.00;;;15.60;99.90;16.60;100389.00;;;;5037794;28;20191;-76
2022/09/14 08:14:20;;;;;;;4.77;4.57;;;15.80;99.90;16.50;100387.00;;;;5037589;28;20237;-75
2022/09/14 08:16:46;;;;;;;4.00;3.90;;;15.90;99.90;17.10;100381.00;;;;5055595;28;20179;-65
2022/09/14 08:19:27;;;;;;;4.20;4.10;;;16.00;99.90;16.70;100379.00;;;;5055416;28;20189;-75
2022/09/14 08:21:52;;;;;;;4.43;4.33;;;16.10;99.90;17.20;100380.00;;;;5037703;28;20179;-76
2022/09/14 08:24:24;;;;;;;3.83;3.73;;;16.20;99.90;17.00;100366.00;;;;5020676;28;20196;-76
2022/09/14 08:26:53;;;;;;;4.47;4.23;;;16.20;99.90;17.00;100371.00;;;;5021335;28;20590;-76
2022/09/14 08:29:20;;;;;;;3.30;3.20;;;16.10;99.90;16.70;100375.00;;;;5054890;28;20182;-73
2022/09/14 08:32:12;;;;;;;6.23;5.83;;;16.10;99.90;15.60;100372.00;;;;5021010;28;20230;-75
2022/09/14 08:34:38;;;;;;;3.17;3.00;;;15.70;99.90;16.10;100370.00;;;;5001631;28;20252;-76
2022/09/14 08:37:04;;;;;;;2.40;2.40;;;15.70;99.90;16.00;100356.00;;;;5010892;28;20179;-76
2022/09/14 08:39:32;;;;;;;2.90;2.80;;;15.60;99.90;16.00;100385.00;;;;5044206;28;20206;-76
2022/09/14 08:41:59;;;;;;;3.10;3.00;;;15.60;99.90;15.80;100377.00;;;;5044566;28;20690;-76
2022/09/14 08:44:58;;;;;;;2.70;2.53;;;15.50;99.90;15.40;100335.00;;;;5009777;28;20263;-76
2022/09/14 08:47:57;;;;;;;2.27;2.20;;;15.50;99.90;16.10;100382.00;;;;5019620;28;20208;-77
2022/09/14 08:50:45;;;;;;;2.60;2.50;;;15.50;99.90;16.30;100383.00;;;;5045083;28;20197;-77
2022/09/14 08:53:11;;;;;;;3.30;3.10;;;15.60;99.90;15.60;100391.00;;;;5036598;28;20204;-76
2022/09/14 08:56:05;;;;;;;2.10;2.10;;;15.50;99.90;15.80;100384.00;;;;5054511;28;20174;-76
2022/09/14 08:59:11;;;;;;;3.10;2.97;;;15.50;99.90;15.80;100382.00;;;;5036594;28;20175;-76
2022/09/14 09:02:13;;;;;;;4.33;4.03;;;15.40;99.90;15.50;100350.00;;;;5036805;28;20205;-76
2022/09/14 09:04:51;;;;;;;4.27;3.17;;;15.30;99.90;15.40;100358.00;;;;5054466;28;20203;-76
2022/09/14 09:07:43;;;;;;;2.70;2.60;;;15.30;99.90;15.60;100402.00;;;;5035859;28;20198;-77
2022/09/14 09:10:11;;;;;;;4.63;4.33;;;15.30;99.90;15.60;100399.00;;;;5036161;28;20176;-75
2022/09/14 09:12:52;;;;;;;2.00;2.00;;;15.40;99.90;15.60;100402.00;;;;5036420;28;20668;-77
2022/09/14 09:15:28;;;;;;;3.83;3.53;;;15.40;99.90;15.20;100393.00;;;;5036263;28;20182;-77
2022/09/14 09:18:08;;;;;;;3.37;3.17;;;15.20;99.90;15.10;100369.00;;;;5015859;28;20227;-76
2022/09/14 09:20:51;;;;;;;2.40;2.30;;;15.10;99.90;15.70;100370.00;;;;5016347;28;20220;-76
2022/09/14 09:23:23;;;;;;;1.90;1.80;;;15.20;99.90;15.50;100403.00;;;;5016735;28;20635;-76
2022/09/14 09:26:30;;;;;;;7.10;5.43;;;15.20;99.90;15.60;100418.00;;;;5016571;28;20213;-76
2022/09/14 09:28:59;;;;;;;2.00;2.00;;;15.20;99.90;16.30;100429.00;;;;5016346;28;20177;-76
2022/09/14 09:31:57;;;;;;;3.37;3.27;;;15.50;99.90;15.70;100391.00;;;;5016384;28;20175;-76
2022/09/14 09:34:28;;;;;;;2.60;2.50;;;15.40;99.90;16.30;100435.00;;;;5017900;28;20195;-77
2022/09/14 09:36:55;;;;;;;3.20;3.10;;;15.50;99.90;16.60;100433.00;;;;5016218;28;20183;-79
2022/09/14 09:39:25;;;;;;;2.57;2.47;;;15.70;99.90;15.80;100405.00;;;;5032581;28;20662;-77
2022/09/14 09:42:12;;;;;;;2.40;2.40;;;15.50;99.90;16.10;100377.00;;;;5016225;28;20270;-77
2022/09/14 09:45:00;;;;;;;4.40;4.10;;;15.60;99.90;15.20;100417.00;;;;5016332;28;20189;-77
2022/09/14 09:47:32;;;;;;;1.83;1.83;;;15.40;99.90;15.80;100428.00;;;;5031241;28;20244;-75
2022/09/14 09:50:06;;;;;;;4.90;4.60;;;15.40;99.90;15.60;100426.00;;;;5035786;28;20175;-77
2022/09/14 09:52:53;;;;;;;2.20;2.20;;;15.40;99.90;15.60;100417.00;;;;5035264;28;20756;-77
2022/09/14 09:55:53;;;;;;;2.00;2.00;;;15.30;99.90;15.90;100426.00;;;;5034675;28;20194;-76
2022/09/14 09:58:50;;;;;;;2.33;2.33;;;15.30;99.90;16.00;100430.00;;;;5035828;28;20676;-77
2022/09/14 10:01:31;;;;;;;2.90;2.80;;;15.50;99.90;15.80;100438.00;;;;5026472;28;20192;-76
2022/09/14 10:04:17;;;;;;;2.60;2.50;;;15.40;99.90;16.30;100410.00;;;;5035924;28;20186;-69
2022/09/14 10:06:53;;;;;;;2.80;2.70;;;15.50;99.90;16.90;100447.00;;;;5053069;28;20185;-79
2022/09/14 10:09:35;;;;;;;3.30;3.20;;;15.90;99.90;16.60;100428.00;;;;5035372;28;20177;-77
2022/09/14 10:12:15;;;;;;;4.57;4.37;;;15.90;99.90;16.30;100438.00;;;;5019519;28;20232;-75
2022/09/14 10:14:46;;;;;;;4.20;4.10;;;15.80;99.90;16.90;100437.00;;;;5035861;28;20677;-76
2022/09/14 10:17:21;;;;;;;3.93;3.83;;;15.90;99.90;16.60;100418.00;;;;5018634;28;20658;-75
2022/09/14 10:19:57;;;;;;;4.07;3.90;;;15.90;99.90;16.20;100375.00;;;;5035056;28;20187;-77
2022/09/14 12:42:37;;;;;;;3.10;3.00;;;15.00;99.90;15.20;100390.00;;;;4995201;28;20293;-75
2022/09/14 12:45:50;;;;;;;3.90;3.80;;;15.00;99.90;15.40;100379.00;;;;4987537;28;20282;-74
2022/09/14 12:48:48;;;;;;;3.57;3.40;;;15.10;99.90;15.10;100392.00;;;;4990106;28;20699;-75
2022/09/14 12:51:46;;;;;;;3.20;3.10;;;15.00;99.90;15.20;100382.00;;;;4972180;28;20668;-74
2022/09/14 12:54:57;;;;;;;3.40;3.30;;;15.10;99.90;14.80;100381.00;;;;4992102;28;20203;-75
2022/09/14 12:57:51;;;;;;;2.70;2.60;;;15.00;99.90;15.50;100366.00;;;;4932862;28;20207;-76
2022/09/14 13:00:19;;;;;;;3.00;2.90;;;15.10;99.90;15.10;100376.00;;;;4993837;28;20212;-75
2022/09/14 13:03:21;;;;;;;3.70;3.50;;;15.10;99.90;15.50;100368.00;;;;4979143;28;20206;-75
2022/09/14 13:05:50;;;;;;;6.83;4.23;;;15.20;99.90;15.70;100367.00;;;;4996914;28;20655;-75
2022/09/14 13:08:22;;;;;;;3.50;3.40;;;15.40;99.90;15.70;100360.00;;;;5013399;28;20195;-75
2022/09/14 13:10:50;;;;;;;3.30;3.20;;;15.30;99.90;15.60;100363.00;;;;5013226;28;20679;-75
2022/09/14 13:13:31;;;;;;;3.83;3.73;;;15.40;99.90;15.60;100355.00;;;;4996774;28;20599;-74
2022/09/14 13:16:03;;;;;;;3.50;3.40;;;15.40;99.90;16.10;100354.00;;;;4997021;28;20184;-75
2022/09/14 13:18:36;;;;;;;4.20;4.10;;;15.60;99.90;15.90;100362.00;;;;4988255;28;20685;-75
2022/09/14 13:21:24;;;;;;;4.53;4.33;;;15.60;99.90;15.60;100364.00;;;;4961386;28;20548;-76
2022/09/14 13:23:50;;;;;;;4.43;4.23;;;15.50;99.90;15.30;100354.00;;;;5012996;28;20346;-75
2022/09/14 13:26:25;;;;;;;3.50;3.40;;;15.30;99.90;15.60;100360.00;;;;5013438;28;20188;-75
2022/09/14 13:28:55;;;;;;;4.00;3.90;;;15.30;99.90;15.80;100344.00;;;;4996686;28;20194;-75
2022/09/14 13:31:37;;;;;;;4.87;4.67;;;15.40;99.90;15.50;100347.00;;;;4996562;28;20193;-75
2022/09/14 13:34:04;;;;;;;4.03;3.83;;;15.30;99.90;15.50;100355.00;;;;5011942;28;20180;-75
2022/09/14 13:37:05;;;;;;;3.33;3.23;;;15.20;99.90;16.30;100350.00;;;;4997219;28;20642;-75
2022/09/14 13:39:35;;;;;;;4.70;4.50;;;15.40;99.90;15.90;100337.00;;;;4998358;28;20279;-75
2022/09/14 13:42:03;;;;;;;3.97;3.87;;;15.50;99.90;15.70;100333.00;;;;4996509;28;20344;-74